Time;durP1;ratioP1;P1;durP2;ratioP2;P2;SDS_P1;SDS_P2;PMS_P1;PMS_P2;Temp;Humidity;BMP_temperature;BMP_pressure;BME280_temperature;BME280_humidity;BME280_pressure;Samples;Min_cycle;Max_cycle;Signal;HPM_P1;HPM_P2
2023/02/17 00:00:56;;;;;;;35.60;24.33;;;;;;;8.09;80.41;101198.78;5022175;28;20133;-60
2023/02/17 00:03:23;;;;;;;37.25;26.13;;;;;;;8.05;82.34;101198.97;5024863;28;20481;-61
2023/02/17 00:05:51;;;;;;;32.75;23.48;;;;;;;8.03;82.52;101195.56;5026914;28;20072;-60
2023/02/17 00:08:18;;;;;;;37.25;26.40;;;;;;;8.09;84.18;101195.31;5018526;28;20080;-62
2023/02/17 00:10:56;;;;;;;36.45;26.15;;;;;;;7.96;84.81;101187.06;5020704;28;20553;-61
2023/02/17 00:13:24;;;;;;;35.53;24.95;;;;;;;7.87;86.39;101183.03;5021343;28;20060;-62
2023/02/17 00:15:52;;;;;;;38.13;26.85;;;;;;;7.86;86.58;101170.00;5021391;28;20084;-59
2023/02/17 00:18:20;;;;;;;40.55;27.90;;;;;;;7.82;87.46;101166.63;5025815;28;20068;-61
2023/02/17 00:20:48;;;;;;;36.78;25.45;;;;;;;7.80;87.76;101165.84;5021762;28;20063;-61
2023/02/17 00:23:15;;;;;;;38.40;27.80;;;;;;;7.81;88.15;101159.69;5024790;28;20069;-61
2023/02/17 00:25:42;;;;;;;35.88;26.23;;;;;;;7.76;89.29;101152.91;5028665;28;20140;-59
2023/02/17 00:28:09;;;;;;;34.90;24.98;;;;;;;7.70;89.53;101154.03;5022479;28;20140;-60
2023/02/17 00:30:38;;;;;;;40.63;27.17;;;;;;;7.69;89.50;101152.28;5024282;28;20049;-60
2023/02/17 00:33:05;;;;;;;35.75;26.42;;;;;;;7.64;90.24;101149.00;5024432;28;20169;-61
2023/02/17 00:35:32;;;;;;;37.20;27.83;;;;;;;7.57;91.38;101151.00;5026792;28;20405;-62
2023/02/17 00:37:59;;;;;;;39.22;27.77;;;;;;;7.58;90.17;101146.63;5021214;28;20562;-60
2023/02/17 00:40:26;;;;;;;41.10;27.85;;;;;;;7.64;90.97;101148.16;5027017;28;20133;-63
2023/02/17 00:42:54;;;;;;;41.92;28.52;;;;;;;7.63;91.19;101147.28;5024873;28;20054;-61
2023/02/17 00:45:21;;;;;;;40.10;26.58;;;;;;;7.65;91.12;101144.59;5027170;28;20159;-60
2023/02/17 00:47:48;;;;;;;39.35;27.15;;;;;;;7.59;92.08;101143.94;5023625;28;20663;-61
2023/02/17 00:50:15;;;;;;;40.45;28.38;;;;;;;7.61;91.17;101138.66;5023256;28;20136;-58
2023/02/17 00:52:42;;;;;;;38.92;26.40;;;;;;;7.60;92.13;101134.31;5024620;28;20321;-60
2023/02/17 00:55:09;;;;;;;36.30;26.83;;;;;;;7.65;91.25;101129.72;5027844;28;20125;-60
2023/02/17 00:57:37;;;;;;;38.00;27.77;;;;;;;7.64;92.18;101124.56;5025693;28;20149;-59
2023/02/17 01:00:05;;;;;;;37.70;26.45;;;;;;;7.66;91.11;101128.84;5023112;28;20537;-59
2023/02/17 01:02:32;;;;;;;41.70;28.60;;;;;;;7.73;91.23;101108.47;5014576;28;20046;-59
2023/02/17 01:04:59;;;;;;;40.97;27.40;;;;;;;7.81;89.58;101114.28;5025187;28;20132;-60
2023/02/17 01:07:26;;;;;;;38.28;25.98;;;;;;;7.80;91.28;101104.72;5025525;28;20077;-58
2023/02/17 01:09:53;;;;;;;38.83;27.40;;;;;;;7.70;91.96;101105.97;5023282;28;20144;-60
2023/02/17 01:12:21;;;;;;;38.55;27.10;;;;;;;7.70;91.94;101096.38;5021309;28;20232;-62
2023/02/17 01:14:48;;;;;;;37.55;26.23;;;;;;;7.64;93.04;101103.59;5024116;28;20481;-62
2023/02/17 01:17:15;;;;;;;42.83;27.73;;;;;;;7.58;93.11;101099.47;5026409;28;20060;-62
2023/02/17 01:19:42;;;;;;;41.80;27.15;;;;;;;7.61;92.27;101091.50;5019088;28;20053;-59
2023/02/17 01:22:09;;;;;;;41.67;27.58;;;;;;;7.66;92.47;101094.78;5025419;28;20152;-59
2023/02/17 01:24:38;;;;;;;39.05;26.58;;;;;;;7.61;93.00;101086.25;5024882;28;20416;-61
2023/02/17 01:27:05;;;;;;;35.53;26.90;;;;;;;7.66;92.62;101080.81;5021317;28;20580;-60
2023/02/17 01:29:32;;;;;;;35.53;26.02;;;;;;;7.66;92.37;101078.22;5026204;28;20081;-59
2023/02/17 01:31:59;;;;;;;38.33;26.42;;;;;;;7.66;92.52;101080.81;5026544;28;20945;-60
2023/02/17 01:34:27;;;;;;;37.55;27.27;;;;;;;7.61;93.93;101071.38;5026809;28;20132;-62
2023/02/17 01:36:54;;;;;;;37.00;26.55;;;;;;;7.56;93.36;101060.19;5026875;23;20082;-79
2023/02/17 01:39:21;;;;;;;38.78;27.08;;;;;;;7.56;94.18;101065.44;4994338;28;20070;-80
2023/02/17 01:41:49;;;;;;;42.05;28.17;;;;;;;7.53;93.94;101060.34;4994106;28;20070;-77
2023/02/17 01:44:22;;;;;;;39.35;26.08;;;;;;;7.54;94.06;101072.50;4991188;28;20050;-81
2023/02/17 01:46:51;;;;;;;40.08;27.77;;;;;;;7.58;94.15;101066.25;5012147;28;20105;-80
2023/02/17 01:49:26;;;;;;;37.70;25.63;;;;;;;7.59;93.73;101062.69;4994191;28;20108;-80
2023/02/17 01:52:26;;;;;;;39.83;27.10;;;;;;;7.54;94.66;101053.31;4990128;28;20069;-80
2023/02/17 01:54:58;;;;;;;43.05;27.17;;;;;;;7.49;94.90;101048.28;4991257;28;20541;-79
2023/02/17 01:57:28;;;;;;;37.00;26.00;;;;;;;7.55;94.93;101049.78;4967296;28;20078;-79
2023/02/17 01:59:55;;;;;;;42.30;28.05;;;;;;;7.53;94.39;101049.84;4995861;28;20169;-81
2023/02/17 02:02:23;;;;;;;45.90;28.17;;;;;;;7.46;97.01;101048.38;4995116;28;20030;-78
2023/02/17 02:04:52;;;;;;;37.28;27.33;;;;;;;7.48;96.45;101043.09;5009228;28;20046;-78
2023/02/17 02:07:24;;;;;;;41.97;28.15;;;;;;;7.53;96.21;101049.00;5005351;28;20061;-78
2023/02/17 02:09:54;;;;;;;36.80;27.55;;;;;;;7.58;95.94;101039.19;5000072;28;20133;-79
2023/02/17 02:12:34;;;;;;;41.08;29.35;;;;;;;7.51;97.36;101035.09;5016070;28;20273;-81
2023/02/17 02:15:12;;;;;;;43.13;27.88;;;;;;;7.41;99.06;101018.91;4998592;28;20062;-82
2023/02/17 02:18:17;;;;;;;41.83;29.27;;;;;;;7.38;99.13;101024.25;4997312;28;20122;-80
2023/02/17 02:21:34;;;;;;;44.10;29.30;;;;;;;7.40;99.52;101022.44;4995895;28;20105;-79
2023/02/17 02:24:14;;;;;;;43.05;28.90;;;;;;;7.37;99.30;101004.22;5012973;28;20333;-82
2023/02/17 02:26:47;;;;;;;41.40;29.52;;;;;;;7.40;100.00;101001.47;4991474;28;20120;-79
2023/02/17 02:29:33;;;;;;;48.65;29.65;;;;;;;7.32;100.00;100986.06;4991364;28;20046;-80
2023/02/17 02:32:03;;;;;;;43.35;29.58;;;;;;;7.19;100.00;100982.22;4986383;28;20054;-78
2023/02/17 02:34:36;;;;;;;42.65;30.08;;;;;;;7.16;100.00;100977.13;4997899;28;20166;-80
2023/02/17 02:37:17;;;;;;;46.88;29.90;;;;;;;7.19;100.00;100965.66;4995322;28;20574;-78
2023/02/17 02:39:47;;;;;;;39.83;29.85;;;;;;;7.17;100.00;100970.13;4996077;28;20066;-80
2023/02/17 02:42:20;;;;;;;44.60;29.98;;;;;;;7.16;100.00;100968.38;4991194;28;20527;-79
2023/02/17 02:44:48;;;;;;;42.03;30.17;;;;;;;7.23;100.00;100967.25;5010724;28;20066;-80
2023/02/17 02:47:39;;;;;;;41.78;29.05;;;;;;;7.29;100.00;100967.00;5014040;28;20089;-79
2023/02/17 02:50:09;;;;;;;42.20;29.70;;;;;;;7.24;100.00;100956.69;4980575;28;20348;-78
2023/02/17 02:52:47;;;;;;;41.47;28.15;;;;;;;7.22;100.00;100955.06;4996523;28;20106;-80
2023/02/17 02:55:19;;;;;;;43.45;31.52;;;;;;;7.17;100.00;100959.66;5014689;28;20050;-77
2023/02/17 02:57:59;;;;;;;46.28;32.47;;;;;;;7.06;100.00;100952.19;4995475;28;20050;-80
2023/02/17 03:00:26;;;;;;;46.88;31.42;;;;;;;7.04;100.00;100949.66;4993319;28;20335;-79
2023/02/17 03:03:01;;;;;;;47.08;31.13;;;;;;;7.07;100.00;100939.06;5004102;28;20062;-78
2023/02/17 03:05:35;;;;;;;41.67;30.55;;;;;;;7.11;100.00;100945.00;5007502;28;20050;-79
2023/02/17 03:08:09;;;;;;;44.92;30.92;;;;;;;7.16;100.00;100936.97;5020193;28;20502;-80
2023/02/17 03:10:47;;;;;;;47.35;30.80;;;;;;;7.13;100.00;100924.88;4992406;28;20068;-78
2023/02/17 03:13:16;;;;;;;48.60;33.22;;;;;;;7.03;100.00;100918.31;4998637;28;20076;-80
2023/02/17 03:15:44;;;;;;;46.08;32.72;;;;;;;7.04;100.00;100913.00;4997430;28;20034;-81
2023/02/17 03:18:11;;;;;;;43.63;30.73;;;;;;;7.00;100.00;100913.19;4994082;28;20065;-78
2023/02/17 03:21:06;;;;;;;54.28;34.15;;;;;;;6.97;100.00;100916.75;5013619;28;20113;-80
2023/02/17 03:23:33;;;;;;;47.40;31.85;;;;;;;6.97;100.00;100906.28;5003995;28;20042;-80
2023/02/17 03:26:00;;;;;;;45.00;30.65;;;;;;;7.02;100.00;100911.34;4999283;28;20058;-79
2023/02/17 03:28:28;;;;;;;47.38;31.67;;;;;;;7.01;100.00;100913.09;4999082;28;20054;-79
2023/02/17 03:30:55;;;;;;;51.92;34.05;;;;;;;7.00;100.00;100907.94;5016136;28;20083;-80
2023/02/17 03:33:22;;;;;;;51.78;34.50;;;;;;;6.93;100.00;100916.94;5014468;28;20058;-78
2023/02/17 03:35:50;;;;;;;48.03;32.10;;;;;;;6.91;100.00;100919.63;5009567;28;20042;-79
2023/02/17 03:38:17;;;;;;;51.80;34.65;;;;;;;6.96;100.00;100925.53;5008898;28;20042;-78
2023/02/17 03:40:44;;;;;;;57.13;34.58;;;;;;;6.95;100.00;100920.38;5009960;28;20049;-76
2023/02/17 03:43:11;;;;;;;47.45;31.77;;;;;;;6.98;100.00;100918.50;5007961;28;20042;-79
2023/02/17 03:45:39;;;;;;;55.83;34.45;;;;;;;6.93;100.00;100922.16;5007444;28;20046;-78
2023/02/17 03:48:06;;;;;;;49.30;33.53;;;;;;;6.94;100.00;100906.44;4995419;28;20050;-78
2023/02/17 03:50:33;;;;;;;51.55;34.47;;;;;;;7.01;100.00;100905.25;5008710;28;20137;-80
2023/02/17 03:53:00;;;;;;;47.67;32.78;;;;;;;6.99;100.00;100904.47;4996125;28;20588;-79
2023/02/17 03:55:28;;;;;;;51.00;33.72;;;;;;;7.00;100.00;100898.31;5009794;28;20328;-78
2023/02/17 03:57:55;;;;;;;56.92;34.22;;;;;;;6.99;100.00;100906.25;4993775;28;20050;-80
2023/02/17 04:00:22;;;;;;;53.83;33.83;;;;;;;6.98;100.00;100900.16;4996267;28;20054;-80
2023/02/17 04:02:50;;;;;;;51.65;33.30;;;;;;;6.97;100.00;100900.22;4989990;28;20046;-81
2023/02/17 04:05:17;;;;;;;53.00;33.45;;;;;;;6.97;100.00;100895.81;4988955;28;20066;-80
2023/02/17 04:07:45;;;;;;;52.97;34.80;;;;;;;6.99;100.00;100888.78;4994076;28;20165;-78
2023/02/17 04:10:12;;;;;;;53.13;34.10;;;;;;;6.97;100.00;100884.50;5011649;28;20054;-81
2023/02/17 04:12:39;;;;;;;51.30;34.28;;;;;;;6.95;100.00;100881.97;5009800;28;20050;-80
2023/02/17 04:15:07;;;;;;;60.42;36.45;;;;;;;6.95;100.00;100881.09;5007562;28;20062;-78
2023/02/17 04:17:36;;;;;;;56.70;35.80;;;;;;;6.92;100.00;100886.44;5008087;28;20081;-79
2023/02/17 04:20:06;;;;;;;52.35;33.70;;;;;;;6.96;100.00;100883.66;4980723;28;20054;-80
2023/02/17 04:22:33;;;;;;;44.55;31.65;;;;;;;6.96;100.00;100877.56;4994249;28;20097;-80
2023/02/17 04:25:00;;;;;;;48.25;34.50;;;;;;;6.95;100.00;100881.97;5008864;28;20058;-80
2023/02/17 04:27:28;;;;;;;52.60;35.25;;;;;;;6.91;100.00;100872.50;5010030;28;20073;-79
2023/02/17 04:29:55;;;;;;;53.92;33.15;;;;;;;6.96;100.00;100874.94;4995029;28;20081;-80
2023/02/17 04:32:22;;;;;;;55.90;35.03;;;;;;;6.99;100.00;100867.84;5007919;28;20637;-82
2023/02/17 04:34:49;;;;;;;50.40;34.63;;;;;;;7.02;100.00;100859.84;4993223;28;20069;-78
2023/02/17 04:37:16;;;;;;;51.03;33.65;;;;;;;7.05;100.00;100862.34;5002976;28;20034;-77
2023/02/17 04:39:44;;;;;;;47.58;33.22;;;;;;;7.10;100.00;100859.53;5022382;28;20053;-78
2023/02/17 04:42:11;;;;;;;46.13;32.50;;;;;;;7.05;100.00;100843.16;5003313;28;20390;-77
2023/02/17 04:44:38;;;;;;;46.05;32.80;;;;;;;7.03;100.00;100858.94;5008800;28;20077;-78
2023/02/17 04:47:06;;;;;;;49.50;34.50;;;;;;;7.02;100.00;100877.31;5002310;28;20169;-78
2023/02/17 04:49:33;;;;;;;43.00;30.27;;;;;;;7.02;100.00;100880.78;4999633;28;20650;-77
2023/02/17 04:52:00;;;;;;;47.30;32.28;;;;;;;6.97;100.00;100861.78;4998365;28;20105;-79
2023/02/17 04:54:28;;;;;;;49.50;32.70;;;;;;;7.03;100.00;100853.72;4997383;28;20061;-78
2023/02/17 04:56:55;;;;;;;46.45;33.55;;;;;;;7.04;100.00;100852.78;4995100;28;20073;-81
2023/02/17 04:59:22;;;;;;;43.22;30.92;;;;;;;7.07;100.00;100849.22;4998715;28;20453;-78
2023/02/17 05:01:51;;;;;;;43.55;29.90;;;;;;;7.05;100.00;100838.78;4989276;28;20218;-79
2023/02/17 05:04:19;;;;;;;43.75;31.55;;;;;;;7.10;100.00;100839.44;5000049;28;20054;-80
2023/02/17 05:06:46;;;;;;;43.33;31.70;;;;;;;7.08;100.00;100832.59;4999511;28;20108;-80
2023/02/17 05:09:14;;;;;;;45.47;31.73;;;;;;;7.06;100.00;100844.88;4997730;28;20065;-79
2023/02/17 05:11:41;;;;;;;45.53;30.77;;;;;;;7.08;100.00;100845.66;4999277;28;20068;-78
2023/02/17 05:14:08;;;;;;;47.30;33.28;;;;;;;7.08;100.00;100840.44;4999316;28;20043;-78
2023/02/17 05:16:35;;;;;;;44.45;32.05;;;;;;;7.06;100.00;100834.41;5017818;28;20050;-80
2023/02/17 05:19:03;;;;;;;44.70;31.85;;;;;;;7.07;100.00;100825.66;4992805;28;20090;-79
2023/02/17 05:21:31;;;;;;;43.40;31.38;;;;;;;7.16;100.00;100827.00;4995378;28;20042;-78
2023/02/17 05:23:58;;;;;;;48.05;31.83;;;;;;;7.14;100.00;100832.31;4996136;28;20105;-79
2023/02/17 05:26:26;;;;;;;46.95;31.45;;;;;;;7.17;100.00;100820.88;5006242;28;20093;-77
2023/02/17 05:28:53;;;;;;;43.90;31.98;;;;;;;7.15;100.00;100822.69;5023843;28;20077;-78
2023/02/17 05:31:21;;;;;;;48.67;31.05;;;;;;;7.15;100.00;100827.94;5004133;28;20061;-80
2023/02/17 05:33:48;;;;;;;44.15;31.60;;;;;;;7.18;100.00;100819.97;4997021;28;20526;-78
2023/02/17 05:36:16;;;;;;;48.42;33.85;;;;;;;7.16;100.00;100814.78;4997614;28;20061;-78
2023/02/17 05:38:47;;;;;;;43.10;31.52;;;;;;;7.15;100.00;100807.84;5011779;28;20100;-79
2023/02/17 05:41:15;;;;;;;45.38;30.08;;;;;;;7.19;100.00;100813.81;4999286;28;20146;-80
2023/02/17 05:43:43;;;;;;;43.13;30.55;;;;;;;7.19;100.00;100819.88;5018468;28;20402;-80
2023/02/17 05:46:10;;;;;;;41.63;31.25;;;;;;;7.22;100.00;100806.69;5000202;28;20056;-80
2023/02/17 05:48:38;;;;;;;45.25;32.38;;;;;;;7.22;100.00;100805.81;4997112;28;20062;-80
2023/02/17 05:51:05;;;;;;;46.90;32.80;;;;;;;7.23;100.00;100811.00;5009124;28;20578;-79
2023/02/17 05:53:32;;;;;;;53.45;33.35;;;;;;;7.20;100.00;100818.13;4993862;28;20077;-78
2023/02/17 05:56:00;;;;;;;46.05;31.55;;;;;;;7.19;100.00;100812.03;4983911;28;20090;-76
2023/02/17 05:58:31;;;;;;;50.63;33.60;;;;;;;7.15;100.00;100812.22;4990425;28;20045;-81
2023/02/17 06:01:08;;;;;;;48.88;32.28;;;;;;;7.15;100.00;100815.69;4997913;28;20105;-80
2023/02/17 06:03:38;;;;;;;46.85;32.85;;;;;;;7.16;100.00;100812.19;4992702;28;20065;-80
2023/02/17 06:06:06;;;;;;;47.78;32.42;;;;;;;7.16;100.00;100808.69;4992156;28;20054;-78
2023/02/17 06:08:35;;;;;;;51.08;31.35;;;;;;;7.17;100.00;100799.94;5011799;28;20569;-78
2023/02/17 06:11:03;;;;;;;45.38;31.92;;;;;;;7.24;100.00;100796.13;5007701;28;20078;-80
2023/02/17 06:13:30;;;;;;;48.35;32.05;;;;;;;7.26;100.00;100796.94;5004471;28;20057;-80
2023/02/17 06:15:58;;;;;;;46.72;32.35;;;;;;;7.28;100.00;100788.06;4994777;28;20058;-78
2023/02/17 06:18:25;;;;;;;42.40;30.65;;;;;;;7.31;100.00;100780.09;5015628;28;20108;-78
2023/02/17 06:20:56;;;;;;;50.42;32.75;;;;;;;7.29;100.00;100774.06;5008917;28;20089;-76
2023/02/17 06:23:24;;;;;;;45.10;31.58;;;;;;;7.26;100.00;100776.81;5020870;28;20047;-78
2023/02/17 06:25:52;;;;;;;44.92;31.98;;;;;;;7.28;100.00;100768.91;5006852;28;20058;-76
2023/02/17 06:28:19;;;;;;;47.42;31.15;;;;;;;7.33;100.00;100769.53;4982679;28;20030;-79
2023/02/17 06:30:46;;;;;;;38.80;29.08;;;;;;;7.37;100.00;100784.22;5001827;28;20054;-80
2023/02/17 06:33:14;;;;;;;43.28;29.70;;;;;;;7.32;100.00;100773.94;5000301;28;20174;-81
2023/02/17 06:35:43;;;;;;;42.45;30.88;;;;;;;7.29;100.00;100768.81;5003053;28;20050;-78
2023/02/17 06:38:10;;;;;;;47.58;31.67;;;;;;;7.29;100.00;100771.44;4996916;28;20073;-80
2023/02/17 06:40:37;;;;;;;44.22;31.15;;;;;;;7.32;100.00;100773.94;5001509;28;20026;-77
2023/02/17 06:43:05;;;;;;;44.22;30.17;;;;;;;7.29;100.00;100774.06;5017798;28;20026;-78
2023/02/17 06:45:32;;;;;;;45.22;29.05;;;;;;;7.34;100.00;100766.88;5021000;28;20050;-79
2023/02/17 06:48:00;;;;;;;39.53;27.77;;;;;;;7.34;100.00;100774.75;5006013;28;20055;-78
2023/02/17 06:50:27;;;;;;;38.45;26.88;;;;;;;7.38;100.00;100766.72;5004786;28;20054;-81
2023/02/17 06:52:55;;;;;;;38.65;29.05;;;;;;;7.44;100.00;100769.09;5002511;28;20049;-80
2023/02/17 06:55:22;;;;;;;39.58;26.58;;;;;;;7.42;100.00;100763.91;5015821;28;20046;-78
2023/02/17 06:57:50;;;;;;;40.35;26.50;;;;;;;7.48;100.00;100760.19;4991940;28;20054;-78
2023/02/17 07:00:18;;;;;;;36.88;26.70;;;;;;;7.54;100.00;100760.75;5009558;28;20050;-78
2023/02/17 07:02:45;;;;;;;36.60;25.95;;;;;;;7.54;100.00;100755.53;5007161;28;20054;-79
2023/02/17 07:05:13;;;;;;;41.88;27.90;;;;;;;7.57;100.00;100757.16;5011891;28;20045;-78
2023/02/17 07:07:40;;;;;;;36.90;26.83;;;;;;;7.60;100.00;100749.16;5010610;28;20037;-79
2023/02/17 07:10:08;;;;;;;38.25;26.50;;;;;;;7.61;100.00;100746.47;4997866;28;20058;-79
2023/02/17 07:12:35;;;;;;;37.45;25.58;;;;;;;7.57;100.00;100741.44;5007119;28;20046;-79
2023/02/17 07:15:03;;;;;;;39.42;25.27;;;;;;;7.63;100.00;100737.69;5004146;28;20422;-79
2023/02/17 07:17:31;;;;;;;33.70;24.92;;;;;;;7.64;100.00;100747.25;5004058;28;20349;-77
2023/02/17 07:19:58;;;;;;;36.35;24.65;;;;;;;7.72;100.00;100745.13;5014558;28;20058;-77
2023/02/17 07:22:25;;;;;;;33.08;24.40;;;;;;;7.69;100.00;100740.88;5004783;28;20046;-79
2023/02/17 07:24:53;;;;;;;33.53;24.25;;;;;;;7.70;100.00;100741.72;5003418;28;20053;-79
2023/02/17 07:27:20;;;;;;;32.78;24.08;;;;;;;7.74;100.00;100735.44;5006123;28;20098;-77
2023/02/17 07:29:48;;;;;;;30.77;23.83;;;;;;;7.75;100.00;100738.00;5004636;28;20046;-75
2023/02/17 07:32:15;;;;;;;34.00;24.65;;;;;;;7.75;100.00;100739.78;5001793;28;20073;-79
2023/02/17 07:34:43;;;;;;;32.15;23.52;;;;;;;7.79;100.00;100739.56;5002583;28;20046;-79
2023/02/17 07:37:10;;;;;;;30.77;22.83;;;;;;;7.87;100.00;100733.94;5021308;28;20074;-80
2023/02/17 07:39:37;;;;;;;31.20;23.63;;;;;;;7.87;100.00;100731.31;5011687;28;20082;-79
2023/02/17 07:42:05;;;;;;;28.35;20.80;;;;;;;7.89;100.00;100732.13;4987579;28;20493;-81
2023/02/17 07:44:32;;;;;;;30.30;21.10;;;;;;;7.95;100.00;100729.22;5005086;28;20092;-79
2023/02/17 07:46:59;;;;;;;28.95;21.40;;;;;;;7.91;100.00;100730.25;5005634;28;20085;-77
2023/02/17 07:49:27;;;;;;;29.27;22.38;;;;;;;7.89;100.00;100723.41;5005511;28;20674;-83
2023/02/17 07:51:56;;;;;;;30.92;22.48;;;;;;;7.97;100.00;100710.78;4989962;28;20137;-79
2023/02/17 07:54:24;;;;;;;30.42;21.65;;;;;;;8.02;100.00;100721.91;5005349;28;20050;-80
2023/02/17 07:56:51;;;;;;;27.98;20.75;;;;;;;8.05;100.00;100714.75;4992167;28;21410;-79
2023/02/17 07:59:18;;;;;;;25.25;19.85;;;;;;;8.08;100.00;100711.97;4998844;28;20114;-77
2023/02/17 08:01:46;;;;;;;28.73;22.00;;;;;;;8.11;100.00;100711.00;4988280;28;20042;-79
2023/02/17 08:04:13;;;;;;;28.55;20.83;;;;;;;8.13;100.00;100712.59;4988004;28;20074;-78
2023/02/17 08:06:40;;;;;;;28.20;20.45;;;;;;;8.12;100.00;100710.91;5001961;28;20116;-78
2023/02/17 08:14:42;;;;;;;26.02;20.58;;;;;;;8.19;100.00;100711.47;5004085;28;20051;-79
2023/02/17 08:17:10;;;;;;;27.08;20.95;;;;;;;8.26;100.00;100720.75;4993223;28;20081;-77
2023/02/17 08:19:37;;;;;;;28.90;20.15;;;;;;;8.28;100.00;100712.81;4999091;28;20061;-76
2023/02/17 08:22:17;;;;;;;28.50;19.90;;;;;;;8.31;100.00;100708.25;5006612;28;20074;-79
2023/02/17 08:24:44;;;;;;;27.63;20.20;;;;;;;8.32;100.00;100707.34;5018298;28;20089;-75
2023/02/17 08:27:13;;;;;;;25.75;18.17;;;;;;;8.33;100.00;100711.69;5000790;28;20054;-81
2023/02/17 08:29:41;;;;;;;27.02;18.50;;;;;;;8.40;100.00;100714.03;5008648;28;20034;-78
2023/02/17 08:32:08;;;;;;;25.38;18.73;;;;;;;8.41;100.00;100706.06;4985005;28;20951;-80
2023/02/17 08:34:36;;;;;;;26.98;19.20;;;;;;;8.42;100.00;100699.94;4993413;28;20054;-81
2023/02/17 08:37:05;;;;;;;25.77;18.27;;;;;;;8.45;100.00;100704.16;4992187;28;20141;-81
2023/02/17 08:39:33;;;;;;;26.08;19.73;;;;;;;8.47;100.00;100704.94;5015501;28;20058;-76
2023/02/17 08:42:02;;;;;;;25.23;19.02;;;;;;;8.47;100.00;100697.94;5014846;28;20054;-78
2023/02/17 08:44:29;;;;;;;22.90;17.25;;;;;;;8.51;100.00;100683.72;4997786;28;20053;-79
2023/02/17 08:46:56;;;;;;;23.50;18.20;;;;;;;8.52;100.00;100688.03;4992835;28;20124;-78
2023/02/17 08:49:27;;;;;;;22.65;18.40;;;;;;;8.50;100.00;100699.53;4983586;28;20133;-81
2023/02/17 08:51:54;;;;;;;24.45;18.58;;;;;;;8.51;100.00;100691.59;5006273;28;20046;-81
2023/02/17 08:54:21;;;;;;;24.00;16.52;;;;;;;8.59;100.00;100694.66;4994445;28;20109;-81
2023/02/17 08:56:49;;;;;;;26.27;18.27;;;;;;;8.58;100.00;100679.00;4972750;28;20137;-82
2023/02/17 08:59:16;;;;;;;24.45;17.63;;;;;;;8.60;100.00;100674.53;4989660;28;20113;-80
2023/02/17 09:01:43;;;;;;;24.95;19.98;;;;;;;8.59;100.00;100668.44;5011223;28;20078;-81
2023/02/17 09:04:12;;;;;;;27.75;18.42;;;;;;;8.60;100.00;100666.66;4997247;28;20513;-81
2023/02/17 09:06:42;;;;;;;25.25;18.50;;;;;;;8.62;100.00;100660.41;4994610;28;20657;-81
2023/02/17 09:09:12;;;;;;;23.90;18.60;;;;;;;8.65;100.00;100659.44;4996688;28;20054;-80
2023/02/17 09:11:39;;;;;;;21.90;18.50;;;;;;;8.65;100.00;100645.47;4985478;28;20082;-82
2023/02/17 09:14:07;;;;;;;22.40;18.27;;;;;;;8.68;100.00;100645.28;5000073;28;21781;-81
2023/02/17 09:16:35;;;;;;;22.40;18.77;;;;;;;8.69;100.00;100639.97;4990182;28;20542;-79
2023/02/17 09:19:02;;;;;;;24.52;17.95;;;;;;;8.73;100.00;100627.53;4989490;28;20058;-81
2023/02/17 09:21:30;;;;;;;22.92;18.45;;;;;;;8.69;100.00;100618.97;5006887;28;20455;-81
2023/02/17 09:23:57;;;;;;;28.05;19.65;;;;;;;8.69;100.00;100620.72;4994261;28;20117;-81
2023/02/17 09:26:24;;;;;;;21.90;18.83;;;;;;;8.70;100.00;100614.56;5007359;28;20046;-80
2023/02/17 09:28:52;;;;;;;26.42;19.38;;;;;;;8.73;100.00;100617.03;5008125;28;20070;-77
2023/02/17 09:31:21;;;;;;;25.75;19.27;;;;;;;8.71;100.00;100609.25;4986720;28;20065;-81
2023/02/17 09:33:50;;;;;;;24.02;18.38;;;;;;;8.79;100.00;100608.84;5008240;28;20092;-82
2023/02/17 09:36:20;;;;;;;24.00;18.40;;;;;;;8.78;100.00;100610.63;4995311;28;20561;-80
2023/02/17 09:38:48;;;;;;;26.88;21.15;;;;;;;8.74;100.00;100595.13;4992988;28;20478;-81
2023/02/17 09:41:21;;;;;;;23.70;18.27;;;;;;;8.73;100.00;100596.03;4974784;28;20806;-79
2023/02/17 09:43:49;;;;;;;27.85;20.02;;;;;;;8.74;100.00;100589.88;4991208;28;20051;-80
2023/02/17 09:46:27;;;;;;;21.42;18.67;;;;;;;8.70;100.00;100583.09;4991362;28;20080;-79
2023/02/17 09:48:58;;;;;;;25.92;19.80;;;;;;;8.68;100.00;100584.91;4994168;28;20077;-80
2023/02/17 09:51:35;;;;;;;23.48;19.08;;;;;;;8.68;100.00;100577.91;5003490;28;20146;-77
2023/02/17 09:54:16;;;;;;;24.88;20.65;;;;;;;8.67;100.00;100584.06;4998237;28;20062;-79
2023/02/17 09:56:47;;;;;;;27.38;20.83;;;;;;;8.65;100.00;100564.94;4991355;28;20030;-78
2023/02/17 09:59:19;;;;;;;22.88;19.55;;;;;;;8.68;100.00;100577.91;4994155;28;20054;-79
2023/02/17 10:01:47;;;;;;;28.40;19.90;;;;;;;8.72;100.00;100570.72;4996766;28;20073;-77
2023/02/17 10:04:21;;;;;;;27.98;20.85;;;;;;;8.75;100.00;100575.81;4976849;28;20062;-77
2023/02/17 10:06:53;;;;;;;22.63;17.85;;;;;;;8.67;100.00;100563.09;4977362;28;20046;-78
2023/02/17 10:09:22;;;;;;;24.52;19.17;;;;;;;8.74;100.00;100566.25;5008320;28;20525;-78
2023/02/17 10:11:51;;;;;;;22.52;18.77;;;;;;;8.76;100.00;100549.47;4995056;28;20498;-77
2023/02/17 10:14:39;;;;;;;27.80;20.92;;;;;;;8.72;100.00;100553.19;4988676;28;20050;-78
2023/02/17 10:17:13;;;;;;;25.75;19.42;;;;;;;8.68;100.00;100556.91;5003935;28;21033;-76
2023/02/17 10:19:48;;;;;;;25.45;20.42;;;;;;;8.75;100.00;100549.56;5004087;28;20073;-79
2023/02/17 10:22:19;;;;;;;24.10;19.60;;;;;;;8.79;100.00;100544.06;4987849;28;20546;-80
2023/02/17 10:24:47;;;;;;;24.95;18.88;;;;;;;8.81;100.00;100536.09;4991624;28;20070;-77
2023/02/17 10:27:27;;;;;;;27.02;21.15;;;;;;;8.76;100.00;100540.75;4990238;28;20517;-79
2023/02/17 10:30:20;;;;;;;22.88;18.77;;;;;;;8.79;100.00;100520.44;4989803;28;20133;-79
2023/02/17 10:33:01;;;;;;;27.17;20.50;;;;;;;8.76;100.00;100523.22;5000981;28;20518;-78
2023/02/17 10:35:51;;;;;;;27.20;21.08;;;;;;;8.77;100.00;100509.16;4956235;28;20064;-80
2023/02/17 10:38:40;;;;;;;24.92;19.65;;;;;;;8.75;100.00;100511.03;4990681;28;20100;-80
2023/02/17 10:41:10;;;;;;;28.35;20.52;;;;;;;8.75;100.00;100500.53;4991862;28;20142;-78
2023/02/17 10:43:37;;;;;;;29.48;21.30;;;;;;;8.73;100.00;100512.88;4993707;28;20082;-77
2023/02/17 10:46:06;;;;;;;27.13;20.80;;;;;;;8.69;100.00;100498.25;4988386;28;20612;-81
2023/02/17 10:48:37;;;;;;;27.08;21.17;;;;;;;8.75;100.00;100494.44;4991807;28;20142;-79
2023/02/17 10:51:05;;;;;;;26.40;19.83;;;;;;;8.79;100.00;100503.84;4973426;28;20047;-79
2023/02/17 10:53:38;;;;;;;27.40;21.10;;;;;;;8.79;100.00;100486.31;4976723;28;20295;-80
2023/02/17 10:56:13;;;;;;;29.83;20.25;;;;;;;8.84;100.00;100473.81;4974531;28;20081;-80
2023/02/17 10:58:58;;;;;;;26.15;21.85;;;;;;;8.82;100.00;100475.66;4999269;28;20082;-77
2023/02/17 11:01:27;;;;;;;27.90;19.77;;;;;;;8.87;100.00;100481.53;4999859;28;20046;-76
2023/02/17 11:04:05;;;;;;;27.60;20.45;;;;;;;8.88;100.00;100490.25;5012784;28;20070;-78
2023/02/17 11:06:40;;;;;;;27.50;19.98;;;;;;;8.91;100.00;100461.19;4986472;28;20101;-78
2023/02/17 11:09:27;;;;;;;27.55;20.75;;;;;;;8.96;100.00;100450.41;4986079;28;20062;-77
2023/02/17 11:12:12;;;;;;;25.08;19.70;;;;;;;9.03;100.00;100429.00;4987672;28;20046;-77
2023/02/17 11:14:45;;;;;;;28.48;19.85;;;;;;;9.07;100.00;100427.91;4994795;28;20085;-76
2023/02/17 11:17:38;;;;;;;24.58;19.10;;;;;;;9.08;100.00;100416.47;5004064;28;20070;-77
2023/02/17 11:20:14;;;;;;;28.25;20.50;;;;;;;9.13;100.00;100410.94;4978586;28;20046;-76
2023/02/17 11:22:46;;;;;;;;;;;;;;;9.13;100.00;100400.44;5012917;28;20419;-77
2023/02/17 11:25:37;;;;;;;25.23;20.00;;;;;;;9.14;100.00;100391.66;5004537;28;19961;-78
2023/02/17 11:28:29;;;;;;;25.25;20.50;;;;;;;9.16;100.00;100379.28;4994321;28;20049;-78
2023/02/17 11:30:59;;;;;;;28.35;19.98;;;;;;;9.18;100.00;100380.00;4999088;28;20058;-76